Time;durP1;ratioP1;P1;durP2;ratioP2;P2;SDS_P1;SDS_P2;PMS_P1;PMS_P2;Temp;Humidity;BMP_temperature;BMP_pressure;BME280_temperature;BME280_humidity;BME280_pressure;Samples;Min_cycle;Max_cycle;Signal;HPM_P1;HPM_P2
2022/10/31 00:01:22;;;;;;;15.80;14.07;;;;;;;9.40;100.00;101712.41;5039388;28;20191;-50
2022/10/31 00:03:48;;;;;;;16.08;14.50;;;;;;;9.37;100.00;101717.84;5031783;28;20851;-48
2022/10/31 00:06:15;;;;;;;15.00;13.40;;;;;;;9.33;100.00;101714.31;5029213;28;20188;-49
2022/10/31 00:08:40;;;;;;;18.67;14.73;;;;;;;9.24;100.00;101710.03;5019268;28;20203;-48
2022/10/31 00:11:10;;;;;;;14.60;13.25;;;;;;;9.28;100.00;101711.75;5037962;28;20184;-50
2022/10/31 00:13:35;;;;;;;15.30;13.60;;;;;;;9.33;100.00;101714.31;5025327;28;20214;-49
2022/10/31 00:16:00;;;;;;;14.38;12.98;;;;;;;9.34;100.00;101720.56;5029619;28;20183;-49
2022/10/31 00:18:26;;;;;;;17.73;14.75;;;;;;;9.33;100.00;101724.16;5040863;28;20240;-49
2022/10/31 00:21:02;;;;;;;15.90;14.27;;;;;;;9.23;100.00;101704.72;5039508;28;20233;-48
2022/10/31 00:23:28;;;;;;;17.02;13.93;;;;;;;9.23;100.00;101723.44;5044721;28;20206;-50
2022/10/31 00:25:53;;;;;;;15.70;14.02;;;;;;;9.25;100.00;101722.50;5045055;28;20565;-49
2022/10/31 00:28:19;;;;;;;14.85;13.40;;;;;;;9.30;100.00;101724.22;5035275;28;20258;-47
2022/10/31 00:30:45;;;;;;;18.33;15.75;;;;;;;9.40;100.00;101723.09;5034820;28;20180;-49
2022/10/31 00:33:10;;;;;;;18.80;14.75;;;;;;;9.46;100.00;101728.34;5038320;28;20191;-51
2022/10/31 00:35:36;;;;;;;17.65;15.75;;;;;;;9.52;100.00;101727.38;5024657;28;20679;-50
2022/10/31 00:38:01;;;;;;;30.73;22.92;;;;;;;9.82;100.00;101731.22;5041850;28;20198;-50
2022/10/31 00:40:27;;;;;;;27.60;21.65;;;;;;;9.81;100.00;101722.28;5037017;28;20212;-50
2022/10/31 00:42:52;;;;;;;25.90;19.30;;;;;;;9.83;100.00;101723.13;5033184;28;20421;-49
2022/10/31 00:45:18;;;;;;;27.42;21.50;;;;;;;9.87;100.00;101718.63;5042159;28;20210;-49
2022/10/31 00:47:43;;;;;;;32.78;24.23;;;;;;;9.87;100.00;101721.28;5038651;28;20286;-47
2022/10/31 00:50:09;;;;;;;33.72;22.38;;;;;;;9.92;100.00;101721.19;5023075;28;20208;-49
2022/10/31 00:52:34;;;;;;;35.15;25.73;;;;;;;10.03;100.00;101728.06;5022106;28;20258;-48
2022/10/31 00:55:01;;;;;;;40.67;28.10;;;;;;;10.15;100.00;101732.28;5024636;28;20255;-50
2022/10/31 00:57:27;;;;;;;39.28;27.58;;;;;;;10.29;100.00;101726.66;5027511;28;20219;-48
2022/10/31 00:59:53;;;;;;;38.50;27.52;;;;;;;10.25;100.00;101731.16;5012549;28;20219;-48
2022/10/31 01:02:18;;;;;;;42.35;29.63;;;;;;;10.33;100.00;101736.38;5020510;28;20271;-51
2022/10/31 01:04:44;;;;;;;40.42;29.38;;;;;;;10.37;100.00;101739.88;5034443;28;20223;-48
2022/10/31 01:07:12;;;;;;;32.92;26.25;;;;;;;10.19;100.00;101735.75;5030128;28;20233;-48
2022/10/31 01:09:37;;;;;;;39.22;27.50;;;;;;;10.14;100.00;101735.88;5041602;28;20526;-47
2022/10/31 01:12:03;;;;;;;42.72;27.38;;;;;;;10.08;100.00;101746.75;5030465;28;20274;-47
2022/10/31 01:14:28;;;;;;;39.60;27.10;;;;;;;10.13;100.00;101741.28;5035915;28;20559;-49
2022/10/31 01:16:56;;;;;;;40.13;28.70;;;;;;;10.21;100.00;101734.84;5036170;28;20273;-48
2022/10/31 01:19:21;;;;;;;49.58;33.17;;;;;;;10.30;100.00;101741.81;5034363;28;20196;-49
2022/10/31 01:21:47;;;;;;;40.95;29.00;;;;;;;10.34;100.00;101742.63;5013694;28;20517;-47
2022/10/31 01:24:12;;;;;;;47.88;34.30;;;;;;;10.44;100.00;101749.53;5043990;28;20215;-48
2022/10/31 01:26:38;;;;;;;39.25;29.63;;;;;;;10.42;100.00;101737.97;5028898;28;20195;-48
2022/10/31 01:29:07;;;;;;;43.92;30.58;;;;;;;10.40;100.00;101746.03;5037496;28;20195;-47
2022/10/31 01:31:37;;;;;;;40.53;29.25;;;;;;;10.25;100.00;101746.34;5036393;28;20184;-48
2022/10/31 01:34:03;;;;;;;44.67;27.02;;;;;;;10.26;100.00;101743.66;5032359;28;20208;-48
2022/10/31 01:36:31;;;;;;;39.53;29.73;;;;;;;10.36;100.00;101732.75;5024956;28;20278;-49
2022/10/31 01:39:00;;;;;;;38.00;25.35;;;;;;;10.31;100.00;101741.75;5017141;28;20187;-49
2022/10/31 01:41:31;;;;;;;32.30;23.08;;;;;;;10.25;100.00;101731.16;5038603;28;20192;-48
2022/10/31 01:43:59;;;;;;;38.40;27.63;;;;;;;10.24;100.00;101747.28;5014929;28;20263;-47
2022/10/31 01:46:30;;;;;;;48.17;30.30;;;;;;;10.42;100.00;101754.03;5038309;28;20210;-48
2022/10/31 01:48:58;;;;;;;49.35;32.80;;;;;;;10.50;100.00;101766.34;5034934;28;20184;-50
2022/10/31 01:51:32;;;;;;;55.80;38.08;;;;;;;10.65;100.00;101769.59;5033889;28;20183;-47
2022/10/31 01:54:01;;;;;;;67.07;42.45;;;;;;;10.92;100.00;101766.25;5038686;28;20812;-47
2022/10/31 01:56:27;;;;;;;78.50;45.63;;;;;;;11.12;100.00;101776.47;5030549;28;20194;-47
2022/10/31 01:58:54;;;;;;;76.57;48.60;;;;;;;11.30;100.00;101780.50;5022988;28;20196;-46
2022/10/31 02:01:20;;;;;;;66.65;42.83;;;;;;;11.41;100.00;101779.31;5017638;28;20196;-47
2022/10/31 02:03:47;;;;;;;82.32;50.05;;;;;;;11.59;100.00;101786.00;5028328;28;20556;-48
2022/10/31 02:06:30;;;;;;;85.18;50.53;;;;;;;11.57;100.00;101788.75;5022761;28;20653;-47
2022/10/31 02:08:59;;;;;;;81.22;50.15;;;;;;;11.63;100.00;101787.69;5034223;28;20322;-49
2022/10/31 02:11:25;;;;;;;86.50;51.47;;;;;;;11.69;100.00;101788.38;5033088;28;20710;-47
2022/10/31 02:13:52;;;;;;;93.55;54.92;;;;;;;11.78;100.00;101794.44;5026311;28;20195;-49
2022/10/31 02:16:21;;;;;;;105.07;57.90;;;;;;;11.93;100.00;101808.34;5018597;28;20655;-48
2022/10/31 02:18:46;;;;;;;107.70;59.30;;;;;;;12.01;100.00;101813.50;5043024;28;20183;-48
2022/10/31 02:21:23;;;;;;;101.40;56.20;;;;;;;12.02;100.00;101806.31;5016974;28;20187;-48
2022/10/31 02:24:00;;;;;;;143.70;63.97;;;;;;;12.02;100.00;101806.31;5030226;28;20604;-48
2022/10/31 02:26:31;;;;;;;136.18;65.00;;;;;;;12.02;100.00;101812.56;5018363;28;20207;-45
2022/10/31 02:29:06;;;;;;;131.48;64.07;;;;;;;12.00;100.00;101816.22;5012858;28;20195;-48
2022/10/31 02:31:36;;;;;;;113.10;56.65;;;;;;;12.00;100.00;101817.09;5026078;28;20237;-48
2022/10/31 02:34:07;;;;;;;102.55;56.63;;;;;;;11.98;100.00;101818.06;5025502;28;20286;-48
2022/10/31 02:36:43;;;;;;;111.53;59.72;;;;;;;11.96;100.00;101823.50;5039993;28;20413;-51
2022/10/31 02:39:32;;;;;;;124.85;60.67;;;;;;;11.95;100.00;101822.59;5025194;28;20235;-50
2022/10/31 02:42:17;;;;;;;117.82;61.58;;;;;;;11.96;100.00;101818.13;5019353;28;20238;-52
2022/10/31 02:45:09;;;;;;;115.20;59.83;;;;;;;11.89;100.00;101819.22;5036926;28;20325;-49
2022/10/31 02:47:37;;;;;;;97.10;53.20;;;;;;;11.91;100.00;101830.78;5030265;28;20238;-48
2022/10/31 02:50:08;;;;;;;98.43;53.42;;;;;;;11.93;100.00;101829.81;5025584;28;20188;-49
2022/10/31 02:52:35;;;;;;;125.35;59.80;;;;;;;11.90;100.00;101832.59;5044909;28;20286;-51
2022/10/31 02:55:32;;;;;;;121.60;58.97;;;;;;;11.91;100.00;101846.91;5024385;28;20290;-52
2022/10/31 02:58:15;;;;;;;109.75;55.20;;;;;;;11.89;100.00;101849.63;4976877;28;20215;-50
2022/10/31 03:01:05;;;;;;;143.98;64.82;;;;;;;11.99;100.00;101857.44;5043667;28;20183;-46
2022/10/31 03:03:53;;;;;;;114.60;60.35;;;;;;;11.91;100.00;101857.66;5042030;28;20241;-46
2022/10/31 03:06:51;;;;;;;94.70;54.42;;;;;;;11.90;100.00;101861.28;5035431;28;20187;-47
2022/10/31 03:09:24;;;;;;;130.38;60.80;;;;;;;11.89;100.00;101871.09;4996992;28;20555;-46
2022/10/31 03:12:10;;;;;;;132.13;60.30;;;;;;;11.83;100.00;101868.56;5029261;28;20156;-47
2022/10/31 03:14:43;;;;;;;135.45;63.08;;;;;;;11.82;100.00;101880.22;5029074;28;20640;-47
2022/10/31 03:17:20;;;;;;;98.82;53.42;;;;;;;11.84;100.00;101869.44;5049041;28;20755;-48
2022/10/31 03:19:49;;;;;;;110.30;56.63;;;;;;;11.82;100.00;101871.28;5028010;28;20218;-48
2022/10/31 03:22:23;;;;;;;104.30;53.55;;;;;;;11.78;100.00;101873.16;5040431;28;20198;-45
2022/10/31 03:24:51;;;;;;;105.93;54.03;;;;;;;11.72;100.00;101884.97;5041102;28;20219;-48
2022/10/31 03:27:24;;;;;;;186.07;61.92;;;;;;;11.73;100.00;101885.84;5031024;28;20179;-44
2022/10/31 03:29:55;;;;;;;103.78;54.92;;;;;;;11.71;100.00;101876.94;5027484;28;20237;-44
2022/10/31 03:32:29;;;;;;;99.05;54.10;;;;;;;11.67;100.00;101875.25;5036233;28;20183;-45
2022/10/31 03:34:59;;;;;;;101.70;53.15;;;;;;;11.68;100.00;101883.28;5047047;28;20197;-44
2022/10/31 03:37:29;;;;;;;69.68;43.30;;;;;;;11.68;100.00;101883.28;5028016;28;20238;-46
2022/10/31 03:39:58;;;;;;;99.70;51.67;;;;;;;11.68;100.00;101894.03;5024691;28;20279;-47
2022/10/31 03:42:28;;;;;;;108.78;53.55;;;;;;;11.62;100.00;101888.81;5024178;28;20184;-46
2022/10/31 03:45:20;;;;;;;91.90;50.78;;;;;;;11.62;100.00;101894.16;5027900;28;20218;-45
2022/10/31 03:47:46;;;;;;;84.88;49.70;;;;;;;11.58;100.00;101894.28;5052817;28;20163;-44
2022/10/31 03:50:14;;;;;;;88.85;48.13;;;;;;;11.58;100.00;101907.72;5034396;28;20191;-45
2022/10/31 03:53:07;;;;;;;74.57;44.95;;;;;;;11.54;100.00;101914.94;5034742;28;20293;-44
2022/10/31 03:55:43;;;;;;;126.00;54.83;;;;;;;11.49;100.00;101912.38;5017260;28;20230;-46
2022/10/31 03:58:17;;;;;;;127.43;51.65;;;;;;;11.48;100.00;101917.81;5029770;28;20265;-47
2022/10/31 04:00:45;;;;;;;93.53;48.67;;;;;;;11.50;100.00;101915.94;5014943;28;20539;-46
2022/10/31 04:03:21;;;;;;;111.22;52.03;;;;;;;11.50;100.00;101924.91;5023921;28;20184;-46
2022/10/31 04:05:53;;;;;;;144.05;54.25;;;;;;;11.50;100.00;101924.00;5015283;28;20207;-47
2022/10/31 04:08:24;;;;;;;123.45;52.70;;;;;;;11.51;100.00;101926.66;5041710;28;20210;-44
2022/10/31 04:10:52;;;;;;;150.40;55.60;;;;;;;11.51;100.00;101932.00;5014333;28;20172;-47
2022/10/31 04:13:25;;;;;;;139.55;55.47;;;;;;;11.53;100.00;101932.84;5031474;28;20199;-48
2022/10/31 04:16:00;;;;;;;161.00;55.90;;;;;;;11.52;100.00;101939.16;5022879;28;20192;-46
2022/10/31 04:18:26;;;;;;;133.27;56.03;;;;;;;11.50;100.00;101940.09;5032099;28;20187;-47
2022/10/31 04:21:07;;;;;;;68.90;44.40;;;;;;;11.56;100.00;101939.94;5034388;28;20176;-47
2022/10/31 04:23:34;;;;;;;107.40;53.28;;;;;;;11.53;100.00;101938.22;5030277;28;20219;-47
2022/10/31 04:26:06;;;;;;;90.38;49.22;;;;;;;11.52;100.00;101947.22;5015810;28;20199;-47
2022/10/31 04:28:33;;;;;;;80.70;48.15;;;;;;;11.57;100.00;101947.09;5037063;28;20261;-45
2022/10/31 04:30:59;;;;;;;117.00;57.15;;;;;;;11.54;100.00;101953.44;5017888;28;20187;-47
2022/10/31 04:33:25;;;;;;;90.18;50.17;;;;;;;11.55;100.00;101949.81;5041850;28;20316;-47
2022/10/31 04:35:50;;;;;;;132.48;57.92;;;;;;;11.57;100.00;101956.94;5042925;28;20238;-46
2022/10/31 04:38:17;;;;;;;138.65;58.80;;;;;;;11.58;100.00;101966.75;5030508;28;20198;-45
2022/10/31 04:40:45;;;;;;;137.20;59.20;;;;;;;11.57;100.00;101968.56;5013999;28;20176;-46
2022/10/31 04:43:39;;;;;;;121.68;57.22;;;;;;;11.61;100.00;101972.03;5028177;28;20207;-47
2022/10/31 04:46:05;;;;;;;133.57;59.20;;;;;;;11.61;100.00;101962.22;5022226;28;20188;-45
2022/10/31 04:48:31;;;;;;;114.30;55.75;;;;;;;11.62;100.00;101963.97;5017396;28;20187;-46
2022/10/31 04:51:00;;;;;;;95.85;49.63;;;;;;;11.67;100.00;101966.53;5025540;28;20187;-45
2022/10/31 04:53:26;;;;;;;91.47;51.40;;;;;;;11.67;100.00;101961.16;5044861;28;20579;-44
2022/10/31 04:56:12;;;;;;;113.00;53.63;;;;;;;11.72;100.00;101959.25;5041891;28;20677;-44
2022/10/31 04:58:42;;;;;;;115.40;55.38;;;;;;;11.68;100.00;101957.56;5037352;28;20179;-47
2022/10/31 05:01:09;;;;;;;150.32;59.38;;;;;;;11.67;100.00;101961.16;5024706;28;20183;-45
2022/10/31 05:03:35;;;;;;;116.55;52.88;;;;;;;11.73;100.00;101964.56;5033409;28;20213;-46
2022/10/31 05:06:00;;;;;;;162.07;57.20;;;;;;;11.67;100.00;101969.22;5040923;28;20192;-46
2022/10/31 05:08:26;;;;;;;112.00;53.92;;;;;;;11.66;100.00;101968.34;5033480;28;20539;-43
2022/10/31 05:10:53;;;;;;;146.10;57.47;;;;;;;11.64;100.00;101972.88;5030140;28;20378;-44
2022/10/31 05:13:18;;;;;;;139.25;56.22;;;;;;;11.64;100.00;101963.94;5031173;28;20684;-46
2022/10/31 05:16:03;;;;;;;125.97;55.47;;;;;;;11.61;100.00;101959.53;5036486;28;20191;-46
2022/10/31 05:18:54;;;;;;;103.82;50.28;;;;;;;11.63;100.00;101962.16;5013962;28;20218;-44
2022/10/31 05:21:38;;;;;;;117.07;53.83;;;;;;;11.55;100.00;101962.34;5035022;28;20195;-44
2022/10/31 05:24:03;;;;;;;122.50;52.92;;;;;;;11.57;100.00;101967.66;5017603;28;20208;-44
2022/10/31 05:26:30;;;;;;;107.10;51.17;;;;;;;11.57;100.00;101973.03;5021593;28;20622;-46
2022/10/31 05:28:55;;;;;;;120.38;52.03;;;;;;;11.50;100.00;101972.28;5029910;28;20271;-43
2022/10/31 05:31:22;;;;;;;106.00;49.78;;;;;;;11.53;100.00;101959.69;5029556;28;20222;-44
2022/10/31 05:33:49;;;;;;;86.75;44.00;;;;;;;11.57;100.00;101973.94;5029704;28;20207;-45
2022/10/31 05:36:33;;;;;;;96.70;47.92;;;;;;;11.57;100.00;101967.66;5048278;28;20229;-45
2022/10/31 05:39:02;;;;;;;108.60;49.72;;;;;;;11.52;100.00;101975.81;5033141;28;20183;-44
2022/10/31 05:41:35;;;;;;;115.63;50.45;;;;;;;11.47;100.00;101973.25;5033002;28;20183;-46
2022/10/31 05:44:10;;;;;;;118.15;51.13;;;;;;;11.48;100.00;101983.09;5049123;28;20570;-43
2022/10/31 05:46:49;;;;;;;127.80;52.60;;;;;;;11.50;100.00;101985.72;5027271;28;20187;-45
2022/10/31 05:49:33;;;;;;;112.72;49.58;;;;;;;11.50;100.00;101977.66;5047944;28;20252;-46
2022/10/31 05:52:30;;;;;;;79.72;42.30;;;;;;;11.58;100.00;101989.09;5042649;28;20604;-43
2022/10/31 05:55:11;;;;;;;116.38;49.33;;;;;;;11.59;100.00;101984.63;5012369;28;20199;-44
2022/10/31 05:57:40;;;;;;;113.25;49.95;;;;;;;11.59;100.00;101982.84;5024478;28;20198;-42
2022/10/31 06:00:08;;;;;;;88.78;44.45;;;;;;;11.66;100.00;101984.44;5049100;28;20185;-44
2022/10/31 06:02:46;;;;;;;111.82;48.50;;;;;;;11.66;100.00;102000.56;5031818;28;20249;-45
2022/10/31 06:05:16;;;;;;;113.30;48.50;;;;;;;11.65;100.00;102000.59;5037567;28;20216;-44
2022/10/31 06:07:42;;;;;;;141.60;53.15;;;;;;;11.62;100.00;101995.31;5001638;28;20184;-45
2022/10/31 06:10:08;;;;;;;128.85;51.05;;;;;;;11.61;100.00;101990.84;5016531;28;20187;-45
2022/10/31 06:12:37;;;;;;;136.70;50.45;;;;;;;11.62;100.00;102000.66;5047079;28;20186;-44
2022/10/31 06:15:13;;;;;;;86.50;43.88;;;;;;;11.65;100.00;101989.84;5025402;28;20195;-44
2022/10/31 06:17:41;;;;;;;118.10;49.42;;;;;;;11.63;100.00;101989.91;5028537;28;20188;-46
2022/10/31 06:20:22;;;;;;;105.25;45.33;;;;;;;11.63;100.00;101989.91;5011772;28;20237;-44
2022/10/31 06:22:56;;;;;;;91.45;41.20;;;;;;;11.68;100.00;101995.16;5025916;28;20183;-45
2022/10/31 06:25:22;;;;;;;83.35;40.42;;;;;;;11.67;100.00;102001.44;5031456;28;20214;-44
2022/10/31 06:27:48;;;;;;;102.65;41.72;;;;;;;11.66;100.00;101997.88;5034628;28;20202;-45
2022/10/31 06:30:15;;;;;;;118.35;45.40;;;;;;;11.61;100.00;102002.47;5028409;28;20378;-43
2022/10/31 06:32:41;;;;;;;78.00;37.38;;;;;;;11.71;100.00;102006.69;5027256;28;20281;-43
2022/10/31 06:35:08;;;;;;;97.65;41.65;;;;;;;11.68;100.00;101997.84;5032783;28;20203;-45
2022/10/31 06:37:35;;;;;;;114.90;41.28;;;;;;;11.69;100.00;102002.28;5014823;28;20399;-44
2022/10/31 06:40:12;;;;;;;115.63;43.97;;;;;;;11.65;100.00;101998.78;5024517;28;20188;-44
2022/10/31 06:42:59;;;;;;;93.13;39.45;;;;;;;11.71;100.00;102008.50;5029571;28;20626;-45
2022/10/31 06:45:25;;;;;;;106.28;41.78;;;;;;;11.64;100.00;102023.00;5045894;28;20195;-42
2022/10/31 06:48:12;;;;;;;77.90;35.60;;;;;;;11.69;100.00;102024.63;5037267;28;20182;-44
2022/10/31 06:50:46;;;;;;;92.80;40.42;;;;;;;11.67;100.00;102025.59;5024301;28;20197;-43
2022/10/31 06:53:14;;;;;;;76.13;35.25;;;;;;;11.75;100.00;102034.34;5019508;28;20275;-45
2022/10/31 06:55:40;;;;;;;73.38;36.30;;;;;;;11.77;100.00;102026.28;5011830;28;20179;-45
2022/10/31 06:58:09;;;;;;;105.90;41.53;;;;;;;11.72;100.00;102038.00;5034726;28;20184;-42
2022/10/31 07:00:34;;;;;;;73.60;35.78;;;;;;;11.79;100.00;102041.41;5011636;28;20564;-42
2022/10/31 07:03:06;;;;;;;85.25;38.42;;;;;;;11.77;100.00;102035.19;5031186;28;20187;-44
2022/10/31 07:05:33;;;;;;;91.38;38.00;;;;;;;11.75;100.00;102050.47;5028015;28;20294;-44
2022/10/31 07:08:02;;;;;;;105.80;40.22;;;;;;;11.68;100.00;102041.69;5040673;28;20245;-42
2022/10/31 07:10:30;;;;;;;98.50;38.35;;;;;;;11.74;100.00;102043.31;5028953;28;20209;-43
2022/10/31 07:13:02;;;;;;;77.15;35.78;;;;;;;11.81;100.00;102057.50;5037726;28;20164;-43
2022/10/31 07:15:34;;;;;;;99.53;40.50;;;;;;;11.74;100.00;102051.38;5042027;28;20206;-42
2022/10/31 07:18:05;;;;;;;107.35;39.20;;;;;;;11.68;100.00;102055.09;5030647;28;20215;-43
2022/10/31 07:20:33;;;;;;;105.60;36.65;;;;;;;11.63;100.00;102070.44;5032159;28;20295;-43
2022/10/31 07:22:58;;;;;;;107.43;36.25;;;;;;;11.59;100.00;102059.78;5015778;28;20179;-41
2022/10/31 07:25:24;;;;;;;120.82;35.53;;;;;;;11.58;100.00;102066.94;5001296;28;20203;-43
2022/10/31 07:28:07;;;;;;;65.18;30.33;;;;;;;11.61;100.00;102060.63;5030404;28;20207;-42
2022/10/31 07:30:33;;;;;;;40.88;24.95;;;;;;;11.70;100.00;102071.19;5053145;28;20606;-41
2022/10/31 07:32:59;;;;;;;103.53;34.45;;;;;;;11.67;100.00;102073.91;5035062;28;20191;-42
2022/10/31 07:35:40;;;;;;;100.10;33.00;;;;;;;11.64;100.00;102074.88;5025861;28;20187;-41
2022/10/31 07:38:11;;;;;;;73.07;30.10;;;;;;;11.64;100.00;102072.19;5049308;28;20254;-40
2022/10/31 07:40:36;;;;;;;51.55;26.73;;;;;;;11.68;100.00;102075.69;5031012;28;20263;-42
2022/10/31 07:43:02;;;;;;;46.30;24.90;;;;;;;11.77;100.00;102075.47;5052969;28;20692;-41
2022/10/31 07:45:53;;;;;;;86.07;30.27;;;;;;;11.73;100.00;102082.72;5040596;28;20223;-42
2022/10/31 07:48:37;;;;;;;103.78;30.60;;;;;;;11.67;100.00;102090.03;5049893;28;20665;-41
2022/10/31 07:51:21;;;;;;;42.45;25.55;;;;;;;11.70;100.00;102080.09;5044051;28;20202;-41
2022/10/31 07:54:05;;;;;;;52.17;26.50;;;;;;;11.70;100.00;102087.28;5034841;28;20269;-42
2022/10/31 07:56:31;;;;;;;60.40;28.33;;;;;;;11.71;100.00;102084.53;5015217;28;20679;-42
2022/10/31 07:58:57;;;;;;;110.07;30.40;;;;;;;11.79;100.00;102086.19;5015322;28;20169;-41
2022/10/31 08:01:22;;;;;;;88.55;29.52;;;;;;;11.77;100.00;102088.91;5031800;28;20188;-42
2022/10/31 08:04:07;;;;;;;110.95;32.05;;;;;;;11.86;100.00;102093.19;5030022;28;20252;-41
2022/10/31 08:06:51;;;;;;;93.95;38.40;;;;;;;11.87;100.00;102085.09;5040103;28;20238;-42
2022/10/31 08:09:27;;;;;;;165.50;33.70;;;;;;;11.79;100.00;102092.44;5036470;28;20190;-40
2022/10/31 08:11:53;;;;;;;49.58;28.55;;;;;;;11.85;100.00;102092.31;5004863;28;20318;-42
2022/10/31 08:14:19;;;;;;;78.40;27.88;;;;;;;11.76;100.00;102100.53;5045993;28;20742;-42
2022/10/31 08:16:45;;;;;;;81.93;27.80;;;;;;;11.79;100.00;102095.13;5049377;28;20191;-42
2022/10/31 08:19:11;;;;;;;54.40;25.45;;;;;;;11.84;100.00;102097.69;5009264;28;20192;-42
2022/10/31 08:21:38;;;;;;;57.10;25.30;;;;;;;11.89;100.00;102110.13;5044672;28;20191;-41
2022/10/31 08:24:05;;;;;;;60.63;26.25;;;;;;;11.95;100.00;102109.97;5030263;28;20247;-41
2022/10/31 08:26:31;;;;;;;80.63;27.73;;;;;;;11.98;100.00;102110.84;5024800;28;20215;-42
2022/10/31 08:28:57;;;;;;;68.82;26.90;;;;;;;11.93;100.00;102119.00;5021745;28;20255;-41
2022/10/31 08:31:27;;;;;;;80.47;28.60;;;;;;;11.92;100.00;102119.94;5014231;28;20184;-42
2022/10/31 08:34:19;;;;;;;92.57;29.60;;;;;;;12.04;100.00;102113.38;5018397;28;20207;-42
2022/10/31 08:37:03;;;;;;;75.50;26.92;;;;;;;12.00;100.00;102107.19;5032328;28;20652;-41
2022/10/31 08:39:37;;;;;;;49.90;23.05;;;;;;;12.08;100.00;102109.69;5023012;28;20196;-42
2022/10/31 08:42:03;;;;;;;66.22;25.80;;;;;;;12.07;100.00;102119.56;5030672;28;20534;-42
2022/10/31 08:44:30;;;;;;;47.53;21.95;;;;;;;12.10;100.00;102121.28;5037268;28;20265;-42
2022/10/31 08:46:56;;;;;;;55.47;24.10;;;;;;;11.91;100.00;102121.72;5018258;28;20188;-42
2022/10/31 08:49:22;;;;;;;54.33;22.73;;;;;;;12.00;100.00;102130.47;5017870;28;20188;-42
2022/10/31 08:51:48;;;;;;;46.30;22.52;;;;;;;11.91;100.00;102120.84;5015773;28;20413;-41
2022/10/31 08:54:13;;;;;;;40.90;22.65;;;;;;;12.00;100.00;102125.97;5016943;28;20249;-42
2022/10/31 08:56:48;;;;;;;42.25;22.48;;;;;;;11.99;100.00;102134.97;5035052;28;20159;-41
2022/10/31 08:59:34;;;;;;;42.30;23.17;;;;;;;11.97;100.00;102130.56;5042700;28;20260;-41
2022/10/31 09:02:17;;;;;;;59.25;27.08;;;;;;;11.80;100.00;102126.41;5044391;28;20315;-39
2022/10/31 09:04:43;;;;;;;50.70;25.67;;;;;;;11.89;100.00;102123.53;5017366;28;20216;-42
2022/10/31 09:07:09;;;;;;;52.75;26.80;;;;;;;11.99;100.00;102124.22;5033605;28;20202;-41
2022/10/31 09:09:36;;;;;;;48.15;23.90;;;;;;;12.04;100.00;102132.19;5026255;28;20233;-42
2022/10/31 09:12:01;;;;;;;51.70;24.75;;;;;;;12.07;100.00;102124.94;5033379;28;20191;-39
2022/10/31 09:14:55;;;;;;;58.58;24.38;;;;;;;11.99;100.00;102115.31;4995146;28;20205;-41
2022/10/31 09:17:26;;;;;;;45.17;22.83;;;;;;;11.90;100.00;102114.59;5049393;28;20237;-41
2022/10/31 09:20:28;;;;;;;44.25;22.88;;;;;;;11.99;100.00;102118.84;5040547;28;20236;-42
2022/10/31 09:22:59;;;;;;;50.25;24.92;;;;;;;11.97;100.00;102127.88;5028049;28;20670;-42
2022/10/31 09:25:26;;;;;;;46.90;23.63;;;;;;;12.06;100.00;102124.97;5029463;28;20220;-42
2022/10/31 09:28:14;;;;;;;52.65;21.92;;;;;;;11.98;100.00;102122.44;5032745;28;20191;-40
2022/10/31 09:30:40;;;;;;;38.05;19.30;;;;;;;11.91;100.00;102110.97;5033150;28;20183;-42
2022/10/31 09:33:12;;;;;;;48.40;20.92;;;;;;;11.99;100.00;102120.66;5036269;28;20258;-39
2022/10/31 09:35:41;;;;;;;38.75;16.27;;;;;;;11.79;100.00;102115.72;5031849;28;20690;-41
2022/10/31 09:38:14;;;;;;;29.80;15.43;;;;;;;11.80;100.00;102118.34;5036568;28;20694;-42
2022/10/31 09:40:46;;;;;;;34.67;16.90;;;;;;;11.82;100.00;102127.25;5028549;28;20296;-43
2022/10/31 09:43:20;;;;;;;32.47;16.10;;;;;;;11.75;100.00;102118.47;5039061;28;20552;-43
2022/10/31 09:46:03;;;;;;;31.65;15.85;;;;;;;11.90;100.00;102113.72;5034658;28;20710;-45
2022/10/31 09:49:02;;;;;;;31.38;14.82;;;;;;;11.89;100.00;102118.16;5026016;28;20882;-45
2022/10/31 09:51:50;;;;;;;24.40;14.35;;;;;;;11.79;100.00;102121.09;5036321;28;20674;-44
2022/10/31 09:54:32;;;;;;;34.72;16.10;;;;;;;11.79;100.00;102127.34;5024077;28;20204;-42
2022/10/31 09:57:02;;;;;;;27.73;13.85;;;;;;;11.94;100.00;102123.47;5049004;28;20232;-43
2022/10/31 09:59:35;;;;;;;37.53;19.45;;;;;;;11.94;100.00;102120.78;5031893;28;20175;-44
2022/10/31 10:02:09;;;;;;;36.08;17.45;;;;;;;12.08;100.00;102115.94;5019574;28;20195;-42
2022/10/31 10:04:49;;;;;;;30.45;16.20;;;;;;;12.18;100.00;102116.63;5014734;28;20244;-43
2022/10/31 10:07:32;;;;;;;35.65;19.15;;;;;;;12.08;100.00;102117.75;5020822;28;20276;-42
2022/10/31 10:10:30;;;;;;;32.10;17.20;;;;;;;12.14;100.00;102114.94;5012696;28;20226;-45
2022/10/31 10:13:41;;;;;;;35.75;19.02;;;;;;;12.10;100.00;102123.97;5032346;28;20558;-43
2022/10/31 10:16:33;;;;;;;36.00;17.92;;;;;;;12.13;100.00;102114.06;5050497;28;20151;-43
2022/10/31 10:19:10;;;;;;;31.25;16.25;;;;;;;12.07;100.00;102118.66;5030736;28;20671;-43
2022/10/31 10:22:31;;;;;;;29.48;14.55;;;;;;;11.98;100.00;102122.44;5032400;28;20266;-43
2022/10/31 10:25:02;;;;;;;25.65;15.10;;;;;;;12.11;100.00;102123.03;4996698;28;20239;-41
2022/10/31 10:27:46;;;;;;;28.15;14.77;;;;;;;12.16;100.00;102116.66;5025621;28;20572;-44
2022/10/31 10:30:21;;;;;;;27.95;14.10;;;;;;;12.21;100.00;102116.53;5031616;28;20187;-45
2022/10/31 10:33:20;;;;;;;27.42;14.75;;;;;;;12.14;100.00;102114.94;5039397;28;20289;-46
2022/10/31 10:36:10;;;;;;;26.95;14.75;;;;;;;12.25;100.00;102110.19;5037051;28;20184;-45
2022/10/31 10:39:02;;;;;;;21.83;12.73;;;;;;;12.38;100.00;102097.31;5032510;28;20322;-45
2022/10/31 10:41:32;;;;;;;24.63;13.07;;;;;;;12.31;100.00;102104.66;5028461;28;20248;-45
2022/10/31 10:43:58;;;;;;;27.50;14.38;;;;;;;12.21;100.00;102105.78;5038842;28;20215;-44
2022/10/31 10:49:24;;;;;;;28.55;14.73;;;;;;;12.42;100.00;102101.69;5039973;28;20175;-45
2022/10/31 10:52:01;;;;;;;25.38;13.27;;;;;;;12.28;100.00;102101.16;5038565;28;20185;-45
2022/10/31 10:54:48;;;;;;;27.27;13.68;;;;;;;12.43;100.00;102102.56;5040469;28;20204;-44
2022/10/31 10:57:17;;;;;;;22.25;13.65;;;;;;;12.56;100.00;102098.66;5007153;28;20195;-45
2022/10/31 10:59:44;;;;;;;23.05;13.50;;;;;;;12.58;100.00;102096.81;5041652;28;20667;-45
2022/10/31 11:02:18;;;;;;;25.15;13.60;;;;;;;12.64;100.00;102096.66;5037349;28;20276;-44
2022/10/31 11:04:47;;;;;;;23.33;12.02;;;;;;;12.74;100.00;102097.25;5034315;28;20624;-45
2022/10/31 11:07:12;;;;;;;21.45;11.70;;;;;;;12.54;100.00;102087.03;5039875;28;20191;-45
2022/10/31 11:09:38;;;;;;;16.35;9.55;;;;;;;12.78;100.00;102082.81;5040220;28;20195;-43
2022/10/31 11:12:09;;;;;;;19.58;11.57;;;;;;;12.90;100.00;102084.28;5035762;28;20262;-44
2022/10/31 11:14:59;;;;;;;18.95;11.45;;;;;;;12.99;100.00;102078.66;5034326;28;20581;-44
2022/10/31 11:17:35;;;;;;;19.45;10.80;;;;;;;13.11;100.00;102058.56;5036722;28;20196;-42
2022/10/31 11:20:06;;;;;;;19.58;11.80;;;;;;;13.18;100.00;102055.69;5025917;28;20183;-43
2022/10/31 11:22:32;;;;;;;15.85;8.60;;;;;;;13.10;100.00;102043.38;5042651;28;20184;-45
2022/10/31 11:24:57;;;;;;;16.50;8.48;;;;;;;13.29;100.00;102046.41;5037373;28;20220;-44
2022/10/31 11:27:25;;;;;;;17.02;8.60;;;;;;;13.23;100.00;102042.09;5040347;28;20274;-47